Twr-7 — TWR-7 — position and weather

sailwx.info

Track history (hours):
 
Tides and Currents Weather Stations Pressure Air Temp Water Temp Dewpoint Dewpoint Depression Visibility Wind Speed Wind Dir Waves Ship Positions

Twr-7

Last reported at 2014-Jul-16 00:33 UTC. Time now 2014-Jul-28 12:21 UTC.
Position N 49°19' W 123°55'.
Warning: this ship's position is 12 days out of date.

; draft 1.5 m.

Type: Military. MMSI: 369970258.

Date/timePositionNaut miles runAvg speedWind from/ knotsBaromVisibWave heightAir tempDewpointWater temp
2014-Jul-16 00:33N 49°19' W 123°55'7 6.6
2014-Jul-15 23:33N 49°22' W 124°05'1 1.5
2014-Jul-15 22:33N 49°21' W 124°03'0 0.4
2014-Jul-15 21:33N 49°21' W 124°03'1 1.4
2014-Jul-15 20:33N 49°21' W 124°00'3 3.1
2014-Jul-15 19:33N 49°20' W 124°04'0 0.1
2014-Jul-15 18:34N 49°20' W 124°04'0 0.5
2014-Jul-15 17:33N 49°19' W 124°05'1 0.9
2014-Jul-15 16:33N 49°20' W 124°06'2 1.7
2014-Jul-15 15:33N 49°19' W 124°03'5 5.0
2014-Jul-15 14:33N 49°16' W 124°09'  
2014-Jul-12 20:32N 49°18' W 123°59'0 0.4
2014-Jul-12 19:33N 49°18' W 123°58'0 0.0
2014-Jul-12 18:33N 49°18' W 123°58'0 0.2
2014-Jul-12 17:33N 49°18' W 123°58'0 0.2
2014-Jul-12 16:33N 49°18' W 123°58'8 7.6
2014-Jul-12 15:33N 49°16' W 124°09'6 0.5
2014-Jul-12 03:30N 49°17' W 124°01'2 2.1
2014-Jul-12 02:33N 49°18' W 123°58'0 0.4
2014-Jul-12 01:33N 49°18' W 123°59'0 0.2
2014-Jul-12 00:33N 49°18' W 123°59'1 1.0
2014-Jul-11 23:33N 49°18' W 123°58'1 0.6
2014-Jul-11 22:33N 49°19' W 123°58'0 0.0
2014-Jul-11 21:33N 49°19' W 123°58'1 0.6
2014-Jul-11 20:33N 49°18' W 123°58'1 0.8
2014-Jul-11 19:33N 49°18' W 123°57'1 0.6
2014-Jul-11 18:34N 49°18' W 123°58'0 0.4
2014-Jul-11 17:34N 49°19' W 123°58'1 0.6
2014-Jul-11 16:34N 49°18' W 123°58'1 1.4
2014-Jul-11 15:34N 49°18' W 124°01'6 5.9
2014-Jul-11 14:34N 49°16' W 124°09'10 0.7
2014-Jul-10 23:28N 49°18' W 123°54'1 1.6
2014-Jul-10 22:34N 49°19' W 123°52'1 1.4
2014-Jul-10 21:34N 49°20' W 123°54'4 4.2
2014-Jul-10 20:33N 49°22' W 123°60'3 3.1
2014-Jul-10 19:33N 49°19' W 123°57'2 1.8
2014-Jul-10 18:34N 49°18' W 123°55'5 5.0
2014-Jul-10 17:33N 49°21' W 124°01'4 4.1
2014-Jul-10 16:33N 49°22' W 123°54'4 4.3
2014-Jul-10 15:34N 49°22' W 124°01'8 7.8
2014-Jul-10 14:33N 49°16' W 124°09'6 0.4
2014-Jul-10 00:33N 49°18' W 124°01'5 4.8
2014-Jul-09 23:33N 49°21' W 123°55'1 1.2
2014-Jul-09 22:33N 49°20' W 123°55'3 2.8
2014-Jul-09 21:33N 49°21' W 123°58'1 0.6
2014-Jul-09 20:33N 49°21' W 123°57'2 2.1
2014-Jul-09 19:33N 49°19' W 123°58'2 1.6
2014-Jul-09 18:33N 49°19' W 124°00'1 1.4
2014-Jul-09 17:33N 49°19' W 123°58'5 4.5
2014-Jul-09 16:33N 49°18' W 124°05'2 2.1
2014-Jul-09 15:33N 49°20' W 124°05'4 4.5
2014-Jul-09 14:34N 49°16' W 124°09'3 0.2
2014-Jul-08 22:07N 49°16' W 124°04'916.1
2014-Jul-08 21:33N 49°10' W 123°53'1514.8
2014-Jul-08 20:33N 49°00' W 123°37'1917.0
2014-Jul-08 19:26N 48°45' W 123°19'1517.6
2014-Jul-08 18:33N 48°31' W 123°10'1917.3
2014-Jul-08 17:28N 48°16' W 122°54'1716.1
2014-Jul-08 16:23N 48°02' W 122°38'1214.6
2014-Jul-08 15:33N 47°50' W 122°39'7 6.8
2014-Jul-08 14:33N 47°44' W 122°44'  
Track history (hours):
 
Tides and Currents Weather Stations Pressure Air Temp Water Temp Dewpoint Dewpoint Depression Visibility Wind Speed Wind Dir Waves Ship Positions

Twr-7

Last reported at 2014-Jul-16 00:33 UTC. Time now 2014-Jul-28 12:21 UTC.
Position N 49°19' W 123°55'.
Warning: this ship's position is 12 days out of date.

; draft 1.5 m.

Type: Military. MMSI: 369970258.

Date/timePositionNaut miles runAvg speedWind from/ knotsBaromVisibWave heightAir tempDewpointWater temp
2014-Jul-16 00:33N 49°19' W 123°55'7 6.6
2014-Jul-15 23:33N 49°22' W 124°05'1 1.5
2014-Jul-15 22:33N 49°21' W 124°03'0 0.4
2014-Jul-15 21:33N 49°21' W 124°03'1 1.4
2014-Jul-15 20:33N 49°21' W 124°00'3 3.1
2014-Jul-15 19:33N 49°20' W 124°04'0 0.1
2014-Jul-15 18:34N 49°20' W 124°04'0 0.5
2014-Jul-15 17:33N 49°19' W 124°05'1 0.9
2014-Jul-15 16:33N 49°20' W 124°06'2 1.7
2014-Jul-15 15:33N 49°19' W 124°03'5 5.0
2014-Jul-15 14:33N 49°16' W 124°09'  
2014-Jul-12 20:32N 49°18' W 123°59'0 0.4
2014-Jul-12 19:33N 49°18' W 123°58'0 0.0
2014-Jul-12 18:33N 49°18' W 123°58'0 0.2
2014-Jul-12 17:33N 49°18' W 123°58'0 0.2
2014-Jul-12 16:33N 49°18' W 123°58'8 7.6
2014-Jul-12 15:33N 49°16' W 124°09'6 0.5
2014-Jul-12 03:30N 49°17' W 124°01'2 2.1
2014-Jul-12 02:33N 49°18' W 123°58'0 0.4
2014-Jul-12 01:33N 49°18' W 123°59'0 0.2
2014-Jul-12 00:33N 49°18' W 123°59'1 1.0
2014-Jul-11 23:33N 49°18' W 123°58'1 0.6
2014-Jul-11 22:33N 49°19' W 123°58'0 0.0
2014-Jul-11 21:33N 49°19' W 123°58'1 0.6
2014-Jul-11 20:33N 49°18' W 123°58'1 0.8
2014-Jul-11 19:33N 49°18' W 123°57'1 0.6
2014-Jul-11 18:34N 49°18' W 123°58'0 0.4
2014-Jul-11 17:34N 49°19' W 123°58'1 0.6
2014-Jul-11 16:34N 49°18' W 123°58'1 1.4
2014-Jul-11 15:34N 49°18' W 124°01'6 5.9
2014-Jul-11 14:34N 49°16' W 124°09'10 0.7
2014-Jul-10 23:28N 49°18' W 123°54'1 1.6
2014-Jul-10 22:34N 49°19' W 123°52'1 1.4
2014-Jul-10 21:34N 49°20' W 123°54'4 4.2
2014-Jul-10 20:33N 49°22' W 123°60'3 3.1
2014-Jul-10 19:33N 49°19' W 123°57'2 1.8
2014-Jul-10 18:34N 49°18' W 123°55'5 5.0
2014-Jul-10 17:33N 49°21' W 124°01'4 4.1
2014-Jul-10 16:33N 49°22' W 123°54'4 4.3
2014-Jul-10 15:34N 49°22' W 124°01'8 7.8
2014-Jul-10 14:33N 49°16' W 124°09'6 0.4
2014-Jul-10 00:33N 49°18' W 124°01'5 4.8
2014-Jul-09 23:33N 49°21' W 123°55'1 1.2
2014-Jul-09 22:33N 49°20' W 123°55'3 2.8
2014-Jul-09 21:33N 49°21' W 123°58'1 0.6
2014-Jul-09 20:33N 49°21' W 123°57'2 2.1
2014-Jul-09 19:33N 49°19' W 123°58'2 1.6
2014-Jul-09 18:33N 49°19' W 124°00'1 1.4
2014-Jul-09 17:33N 49°19' W 123°58'5 4.5
2014-Jul-09 16:33N 49°18' W 124°05'2 2.1
2014-Jul-09 15:33N 49°20' W 124°05'4 4.5
2014-Jul-09 14:34N 49°16' W 124°09'3 0.2
2014-Jul-08 22:07N 49°16' W 124°04'916.1
2014-Jul-08 21:33N 49°10' W 123°53'1514.8
2014-Jul-08 20:33N 49°00' W 123°37'1917.0
2014-Jul-08 19:26N 48°45' W 123°19'1517.6
2014-Jul-08 18:33N 48°31' W 123°10'1917.3
2014-Jul-08 17:28N 48°16' W 122°54'1716.1
2014-Jul-08 16:23N 48°02' W 122°38'1214.6
2014-Jul-08 15:33N 47°50' W 122°39'7 6.8
2014-Jul-08 14:33N 47°44' W 122°44'  

Dump ship's entire track history